Delta — PDPC — position and weather

sailwx.info

Track history (hours):
 
Tides and Currents Weather Stations Pressure Air Temp Water Temp Dewpoint Dewpoint Depression Visibility Wind Speed Wind Dir Waves Ship Positions

Oceanographic research ship Delta (Netherlands)

Detailed information on ship capabilities available from University of Delaware's Ocean Information Center.

Last reported at 2017-Jun-28 06:54 UTC. Time now 2017-Jun-28 07:03 UTC.
Position N 51°27' E 003°36'.

MMSI: 244696464.

Date/timePositionNaut miles runAvg speedWind from/ knotsBaromVisibWave heightAir tempDewpointWater temp
2017-Jun-28 06:54N 51°27' E 003°36'0 0.0
2017-Jun-28 06:30N 51°27' E 003°36'0 0.0
2017-Jun-28 05:51N 51°27' E 003°36'0 0.0
2017-Jun-28 05:30N 51°27' E 003°36'0 0.0
2017-Jun-28 04:55N 51°27' E 003°36'0 0.0
2017-Jun-28 04:29N 51°27' E 003°36'0 0.0
2017-Jun-28 02:16N 51°27' E 003°36'0 0.0
2017-Jun-28 01:55N 51°27' E 003°36'0 0.0
2017-Jun-28 01:30N 51°27' E 003°36'0 0.0
2017-Jun-28 00:59N 51°27' E 003°36'0 0.0
2017-Jun-28 00:30N 51°27' E 003°36'0 0.0
2017-Jun-28 00:00N 51°27' E 003°36'0 0.0
2017-Jun-27 23:29N 51°27' E 003°36'0 0.0
2017-Jun-27 22:57N 51°27' E 003°36'0 0.0
2017-Jun-27 22:30N 51°27' E 003°36'0 0.0
2017-Jun-27 21:54N 51°27' E 003°36'0 0.0
2017-Jun-27 21:25N 51°27' E 003°36'0 0.0
2017-Jun-27 20:39N 51°27' E 003°36'0 0.0
2017-Jun-27 20:22N 51°27' E 003°36'0 0.0
2017-Jun-27 19:54N 51°27' E 003°36'0 0.0
2017-Jun-27 19:21N 51°27' E 003°36'0 0.0
2017-Jun-27 18:52N 51°27' E 003°36'0 0.0
2017-Jun-27 18:25N 51°27' E 003°36'0 0.0
2017-Jun-27 18:00N 51°27' E 003°36'0 0.0
2017-Jun-27 16:41N 51°27' E 003°36'0 0.0
2017-Jun-27 16:14N 51°27' E 003°36'0 0.0
2017-Jun-27 15:58N 51°27' E 003°36'0 0.7
2017-Jun-27 15:26N 51°26' E 003°36'3 6.3
2017-Jun-27 15:00N 51°26' E 003°40'6 5.7
2017-Jun-27 14:00N 51°23' E 003°48'3 5.8
2017-Jun-27 13:30N 51°22' E 003°53'3 6.8
2017-Jun-27 13:00N 51°25' E 003°55'3 5.8
2017-Jun-27 12:29N 51°27' E 003°60'1 2.9
2017-Jun-27 11:59N 51°26' E 004°02'3 7.1
2017-Jun-27 11:30N 51°23' E 004°05'4 7.1
2017-Jun-27 10:57N 51°23' E 004°12'3 6.9
2017-Jun-27 10:29N 51°21' E 004°15'2 2.7
2017-Jun-27 09:54N 51°22' E 004°13'2 3.7
2017-Jun-27 09:21N 51°23' E 004°11'2 5.8
2017-Jun-27 08:58N 51°22' E 004°07'2 5.1
2017-Jun-27 08:30N 51°24' E 004°05'3 6.0
2017-Jun-27 08:00N 51°26' E 004°01'1 2.4
2017-Jun-27 07:29N 51°27' E 004°01'0 0.0
2017-Jun-27 06:59N 51°27' E 004°01'0 0.0
2017-Jun-27 06:26N 51°27' E 004°01'0 0.0
2017-Jun-27 06:00N 51°27' E 004°01'0 0.0
2017-Jun-27 05:28N 51°27' E 004°01'0 0.0
2017-Jun-27 04:56N 51°27' E 004°01'0 0.0
2017-Jun-27 04:27N 51°27' E 004°01'0 0.0
2017-Jun-27 03:56N 51°27' E 004°01'0 0.0
2017-Jun-27 03:29N 51°27' E 004°01'0 0.0
2017-Jun-27 03:00N 51°27' E 004°01'0 0.0
2017-Jun-27 02:29N 51°27' E 004°01'0 0.0
2017-Jun-27 02:00N 51°27' E 004°01'0 0.0
2017-Jun-27 01:28N 51°27' E 004°01'0 0.0
2017-Jun-27 01:00N 51°27' E 004°01'0 0.0
2017-Jun-27 00:30N 51°27' E 004°01'0 0.0
2017-Jun-26 23:58N 51°27' E 004°01'0 0.0
2017-Jun-26 23:27N 51°27' E 004°01'0 0.0
2017-Jun-26 23:00N 51°27' E 004°01'0 0.0
2017-Jun-26 22:30N 51°27' E 004°01'0 0.0
2017-Jun-26 21:57N 51°27' E 004°01'0 0.0
2017-Jun-26 21:28N 51°27' E 004°01'0 0.0
2017-Jun-26 20:57N 51°27' E 004°01'0 0.0
2017-Jun-26 20:19N 51°27' E 004°01'0 0.0
2017-Jun-26 19:58N 51°27' E 004°01'0 0.0
2017-Jun-26 19:30N 51°27' E 004°01'0 0.0
2017-Jun-26 19:00N 51°27' E 004°01'0 0.0
2017-Jun-26 18:30N 51°27' E 004°01'0 0.0
2017-Jun-26 17:58N 51°27' E 004°01'0 0.0
2017-Jun-26 17:30N 51°27' E 004°01'0 0.0
2017-Jun-26 16:59N 51°27' E 004°01'0 0.0
2017-Jun-26 16:30N 51°27' E 004°01'1 1.9
2017-Jun-26 16:00N 51°26' E 004°01'3 5.6
2017-Jun-26 15:30N 51°24' E 003°58'5 9.6
2017-Jun-26 15:00N 51°21' E 003°52'3 5.6
2017-Jun-26 14:30N 51°21' E 003°47'9 5.5
2017-Jun-26 12:53N 51°26' E 003°35'1 1.8
2017-Jun-26 12:29N 51°27' E 003°36'0 0.3
2017-Jun-26 12:00N 51°27' E 003°36'0 0.0
2017-Jun-26 11:27N 51°27' E 003°36'0 0.0
2017-Jun-26 10:56N 51°27' E 003°36'0 0.0
2017-Jun-26 10:29N 51°27' E 003°36'0 0.0
2017-Jun-26 10:00N 51°27' E 003°36'0 0.0
2017-Jun-26 09:30N 51°27' E 003°36'0 0.0
2017-Jun-26 08:59N 51°27' E 003°36'0 0.0
2017-Jun-26 08:23N 51°27' E 003°36'0 0.0
2017-Jun-26 08:00N 51°27' E 003°36'0 0.0
2017-Jun-26 07:22N 51°27' E 003°36'0 0.0
2017-Jun-26 06:57N 51°27' E 003°36'0 0.0
2017-Jun-26 06:30N 51°27' E 003°36'0 0.0
2017-Jun-26 06:00N 51°27' E 003°36'0 0.0
2017-Jun-26 05:29N 51°27' E 003°36'0 0.0
2017-Jun-26 04:56N 51°27' E 003°36'0 0.0
2017-Jun-26 04:28N 51°27' E 003°36'0 0.0
2017-Jun-26 03:50N 51°27' E 003°36'0 0.0
2017-Jun-26 03:22N 51°27' E 003°36'0 0.0
2017-Jun-26 02:20N 51°27' E 003°36'0 0.0
2017-Jun-26 01:59N 51°27' E 003°36'0 0.0
2017-Jun-26 01:29N 51°27' E 003°36'0 0.0
2017-Jun-26 00:57N 51°27' E 003°36'0 0.0
2017-Jun-26 00:29N 51°27' E 003°36'0 0.0
2017-Jun-26 00:00N 51°27' E 003°36'0 0.0
2017-Jun-25 23:28N 51°27' E 003°36'0 0.0
2017-Jun-25 23:00N 51°27' E 003°36'0 0.0
2017-Jun-25 22:30N 51°27' E 003°36'0 0.0
2017-Jun-25 22:00N 51°27' E 003°36'0 0.0
2017-Jun-25 21:29N 51°27' E 003°36'0 0.0
2017-Jun-25 21:00N 51°27' E 003°36'0 0.0
2017-Jun-25 20:30N 51°27' E 003°36'0 0.0
2017-Jun-25 20:00N 51°27' E 003°36'0 0.0
2017-Jun-25 19:30N 51°27' E 003°36'0 0.0
2017-Jun-25 19:00N 51°27' E 003°36'0 0.0
2017-Jun-25 18:28N 51°27' E 003°36'0 0.0
2017-Jun-25 17:59N 51°27' E 003°36'0 0.0
2017-Jun-25 17:29N 51°27' E 003°36'0 0.0
2017-Jun-25 16:40N 51°27' E 003°36'0 0.0
2017-Jun-24 09:33N 51°27' E 003°36'0 0.0
2017-Jun-24 09:29N 51°27' E 003°36'0 0.0
2017-Jun-23 22:33N 51°27' E 003°36'0 0.0
2017-Jun-23 22:29N 51°27' E 003°36'0 0.0
2017-Jun-23 22:00N 51°27' E 003°36'0 0.0
2017-Jun-23 13:03N 51°27' E 003°36'0 0.0
2017-Jun-23 12:57N 51°27' E 003°36'0 0.0
2017-Jun-23 12:03N 51°27' E 003°36'0 0.0
2017-Jun-23 11:55N 51°27' E 003°36'0 0.0
2017-Jun-23 10:30N 51°27' E 003°36'0 0.0
2017-Jun-23 09:59N 51°27' E 003°36'0 0.0
2017-Jun-23 09:27N 51°27' E 003°36'0 0.0
2017-Jun-23 09:00N 51°27' E 003°36'0 0.0
2017-Jun-23 08:24N 51°27' E 003°36'0 0.0
2017-Jun-23 07:59N 51°27' E 003°36'0 0.0
2017-Jun-23 07:28N 51°27' E 003°36'0 0.0
2017-Jun-23 07:00N 51°27' E 003°36'0 0.0
2017-Jun-23 06:30N 51°27' E 003°36'0 0.0
2017-Jun-23 06:00N 51°27' E 003°36'0 0.0
2017-Jun-23 05:29N 51°27' E 003°36'0 0.0
2017-Jun-23 05:00N 51°27' E 003°36'0 0.0
2017-Jun-23 04:30N 51°27' E 003°36'0 0.0
2017-Jun-23 04:00N 51°27' E 003°36'0 0.0
2017-Jun-23 03:29N 51°27' E 003°36'0 0.0
2017-Jun-23 02:58N 51°27' E 003°36'0 0.0
2017-Jun-23 02:28N 51°27' E 003°36'0 0.0
2017-Jun-23 01:58N 51°27' E 003°36'0 0.0
2017-Jun-23 01:28N 51°27' E 003°36'0 0.0
2017-Jun-23 01:00N 51°27' E 003°36'0 0.0
2017-Jun-23 00:29N 51°27' E 003°36'0 0.0
2017-Jun-22 23:55N 51°27' E 003°36'0 0.0
2017-Jun-22 23:21N 51°27' E 003°36'0 0.0
2017-Jun-22 22:50N 51°27' E 003°36'0 0.0
2017-Jun-22 22:27N 51°27' E 003°36'0 0.0
2017-Jun-22 20:23N 51°27' E 003°36'0 0.0
2017-Jun-22 19:20N 51°27' E 003°36'0 0.0
2017-Jun-22 18:55N 51°27' E 003°36'0 0.0
2017-Jun-22 18:22N 51°27' E 003°36'0 0.0
2017-Jun-22 18:00N 51°27' E 003°36'0 0.0
2017-Jun-22 17:29N 51°27' E 003°36'0 0.0
2017-Jun-22 16:59N 51°27' E 003°36'0 0.0
2017-Jun-22 16:26N 51°27' E 003°36'0 0.0
2017-Jun-22 15:59N 51°27' E 003°36'0 0.0
2017-Jun-22 15:29N 51°27' E 003°36'0 0.0
2017-Jun-22 14:53N 51°27' E 003°36'0 0.0
2017-Jun-22 14:27N 51°27' E 003°36'0 0.0
2017-Jun-22 13:24N 51°27' E 003°36'0 0.0
2017-Jun-22 12:37N 51°27' E 003°36'0 0.0
2017-Jun-22 12:21N 51°27' E 003°36'0 0.0
2017-Jun-22 11:56N 51°27' E 003°36'1 1.1
2017-Jun-22 11:26N 51°27' E 003°35'2 4.0
2017-Jun-22 10:52N 51°29' E 003°36'1 1.7
2017-Jun-22 10:29N 51°30' E 003°37'1 1.8
2017-Jun-22 09:53N 51°30' E 003°39'2 5.9
2017-Jun-22 09:30N 51°32' E 003°40'0 0.3
2017-Jun-22 09:00N 51°33' E 003°40'2 3.1
2017-Jun-22 08:30N 51°31' E 003°42'2 3.0
2017-Jun-22 07:53N 51°32' E 003°44'3 5.0
2017-Jun-22 07:22N 51°33' E 003°48'2 5.2
2017-Jun-22 06:56N 51°33' E 003°52'0 0.0
2017-Jun-22 06:28N 51°33' E 003°52'0 0.0
2017-Jun-22 05:39N 51°33' E 003°52'0 0.0
2017-Jun-22 05:21N 51°33' E 003°52'0 0.0
2017-Jun-22 05:00N 51°33' E 003°52'0 0.0
2017-Jun-22 03:59N 51°33' E 003°52'0 0.0
2017-Jun-22 03:30N 51°33' E 003°52'0 0.0
2017-Jun-22 03:00N 51°33' E 003°52'0 0.0
2017-Jun-22 02:30N 51°33' E 003°52'0 0.0
2017-Jun-22 01:59N 51°33' E 003°52'0 0.0
2017-Jun-22 01:30N 51°33' E 003°52'0 0.0
2017-Jun-22 00:57N 51°33' E 003°52'0 0.0
2017-Jun-22 00:09N 51°33' E 003°52'0 0.0
2017-Jun-22 00:00N 51°33' E 003°52'0 0.0
2017-Jun-21 23:29N 51°33' E 003°52'0 0.0
2017-Jun-21 23:00N 51°33' E 003°52'0 0.0
2017-Jun-21 22:28N 51°33' E 003°52'0 0.0
2017-Jun-21 21:57N 51°33' E 003°52'0 0.0
2017-Jun-21 21:30N 51°33' E 003°52'0 0.0
2017-Jun-21 20:58N 51°33' E 003°52'0 0.0
2017-Jun-21 20:28N 51°33' E 003°52'0 0.0
2017-Jun-21 20:00N 51°33' E 003°52'0 0.0
2017-Jun-21 19:24N 51°33' E 003°52'0 0.0
2017-Jun-21 18:59N 51°33' E 003°52'0 0.0
2017-Jun-21 18:30N 51°33' E 003°52'0 0.0
2017-Jun-21 17:52N 51°33' E 003°52'0 0.0
2017-Jun-21 17:30N 51°33' E 003°52'0 0.0
2017-Jun-21 16:57N 51°33' E 003°52'0 0.0
2017-Jun-21 16:30N 51°33' E 003°52'0 0.0
2017-Jun-21 16:00N 51°33' E 003°52'0 0.0
2017-Jun-21 15:30N 51°33' E 003°52'0 0.0
2017-Jun-21 14:59N 51°33' E 003°52'0 0.0
2017-Jun-21 14:28N 51°33' E 003°52'1 1.2
2017-Jun-21 13:28N 51°33' E 003°53'3 5.4
2017-Jun-21 12:53N 51°36' E 003°53'0 0.1
2017-Jun-21 11:02N 51°36' E 003°53'1 6.8
2017-Jun-21 10:52N 51°35' E 003°54'3 6.5
2017-Jun-21 10:25N 51°33' E 003°57'5 6.7
2017-Jun-21 09:39N 51°31' E 004°05'2 6.5
2017-Jun-21 09:18N 51°30' E 004°08'1 3.2
2017-Jun-21 08:56N 51°31' E 004°07'4 8.6
2017-Jun-21 08:27N 51°32' E 004°00'4 5.7
2017-Jun-21 07:45N 51°36' E 004°00'517.6
2017-Jun-21 07:27N 51°40' E 004°07'0 0.0
2017-Jun-21 07:00N 51°40' E 004°07'5 0.3
2017-Jun-20 15:05N 51°44' E 004°02'0 0.0
2017-Jun-20 15:00N 51°44' E 004°02'2 1.7
2017-Jun-20 14:00N 51°46' E 004°01'3 7.0
2017-Jun-20 13:30N 51°48' E 003°56'2 0.4
2017-Jun-20 08:22N 51°46' E 003°58'0 0.0
2017-Jun-20 08:00N 51°46' E 003°58'8 2.9
2017-Jun-20 05:23N 51°41' E 004°07'11 0.9
2017-Jun-19 17:09N 51°31' E 004°13'2 7.5
2017-Jun-19 16:53N 51°29' E 004°13'2 4.0
2017-Jun-19 16:17N 51°27' E 004°14'2 2.5
2017-Jun-19 15:29N 51°25' E 004°14'4 6.7
2017-Jun-19 14:56N 51°22' E 004°18'2 1.9
2017-Jun-19 13:40N 51°23' E 004°15'4 2.6
2017-Jun-19 12:18N 51°27' E 004°13'14 3.8
2017-Jun-19 08:40N 51°40' E 004°21'0 0.2
2017-Jun-19 08:09N 51°40' E 004°21'0 0.0
2017-Jun-19 08:00N 51°40' E 004°21'2 2.8
2017-Jun-19 07:10N 51°39' E 004°17'1 5.0
2017-Jun-19 06:57N 51°38' E 004°15'2 3.1
2017-Jun-19 06:28N 51°39' E 004°13'2 3.7
2017-Jun-19 06:00N 51°40' E 004°11'1 1.5
2017-Jun-19 05:30N 51°40' E 004°10'1 1.2
2017-Jun-19 05:00N 51°40' E 004°10'0 0.3
2017-Jun-19 04:29N 51°40' E 004°10'0 0.0
2017-Jun-19 03:54N 51°40' E 004°10'0 0.0
2017-Jun-19 03:21N 51°40' E 004°10'0 0.0
2017-Jun-19 03:00N 51°40' E 004°10'0 0.0
2017-Jun-19 02:30N 51°40' E 004°10'0 0.0
2017-Jun-19 02:00N 51°40' E 004°10'0 0.0
2017-Jun-19 01:30N 51°40' E 004°10'0 0.0
2017-Jun-19 01:00N 51°40' E 004°10'0 0.0
2017-Jun-19 00:30N 51°40' E 004°10'0 0.0
2017-Jun-19 00:00N 51°40' E 004°10'0 0.0
2017-Jun-18 23:30N 51°40' E 004°10'0 0.0
2017-Jun-18 23:00N 51°40' E 004°10'  
Track history (hours):
 
Tides and Currents Weather Stations Pressure Air Temp Water Temp Dewpoint Dewpoint Depression Visibility Wind Speed Wind Dir Waves Ship Positions

Oceanographic research ship Delta (Netherlands)

Detailed information on ship capabilities available from University of Delaware's Ocean Information Center.

Last reported at 2017-Jun-28 06:54 UTC. Time now 2017-Jun-28 07:03 UTC.
Position N 51°27' E 003°36'.

MMSI: 244696464.

Date/timePositionNaut miles runAvg speedWind from/ knotsBaromVisibWave heightAir tempDewpointWater temp
2017-Jun-28 06:54N 51°27' E 003°36'0 0.0
2017-Jun-28 06:30N 51°27' E 003°36'0 0.0
2017-Jun-28 05:51N 51°27' E 003°36'0 0.0
2017-Jun-28 05:30N 51°27' E 003°36'0 0.0
2017-Jun-28 04:55N 51°27' E 003°36'0 0.0
2017-Jun-28 04:29N 51°27' E 003°36'0 0.0
2017-Jun-28 02:16N 51°27' E 003°36'0 0.0
2017-Jun-28 01:55N 51°27' E 003°36'0 0.0
2017-Jun-28 01:30N 51°27' E 003°36'0 0.0
2017-Jun-28 00:59N 51°27' E 003°36'0 0.0
2017-Jun-28 00:30N 51°27' E 003°36'0 0.0
2017-Jun-28 00:00N 51°27' E 003°36'0 0.0
2017-Jun-27 23:29N 51°27' E 003°36'0 0.0
2017-Jun-27 22:57N 51°27' E 003°36'0 0.0
2017-Jun-27 22:30N 51°27' E 003°36'0 0.0
2017-Jun-27 21:54N 51°27' E 003°36'0 0.0
2017-Jun-27 21:25N 51°27' E 003°36'0 0.0
2017-Jun-27 20:39N 51°27' E 003°36'0 0.0
2017-Jun-27 20:22N 51°27' E 003°36'0 0.0
2017-Jun-27 19:54N 51°27' E 003°36'0 0.0
2017-Jun-27 19:21N 51°27' E 003°36'0 0.0
2017-Jun-27 18:52N 51°27' E 003°36'0 0.0
2017-Jun-27 18:25N 51°27' E 003°36'0 0.0
2017-Jun-27 18:00N 51°27' E 003°36'0 0.0
2017-Jun-27 16:41N 51°27' E 003°36'0 0.0
2017-Jun-27 16:14N 51°27' E 003°36'0 0.0
2017-Jun-27 15:58N 51°27' E 003°36'0 0.7
2017-Jun-27 15:26N 51°26' E 003°36'3 6.3
2017-Jun-27 15:00N 51°26' E 003°40'6 5.7
2017-Jun-27 14:00N 51°23' E 003°48'3 5.8
2017-Jun-27 13:30N 51°22' E 003°53'3 6.8
2017-Jun-27 13:00N 51°25' E 003°55'3 5.8
2017-Jun-27 12:29N 51°27' E 003°60'1 2.9
2017-Jun-27 11:59N 51°26' E 004°02'3 7.1
2017-Jun-27 11:30N 51°23' E 004°05'4 7.1
2017-Jun-27 10:57N 51°23' E 004°12'3 6.9
2017-Jun-27 10:29N 51°21' E 004°15'2 2.7
2017-Jun-27 09:54N 51°22' E 004°13'2 3.7
2017-Jun-27 09:21N 51°23' E 004°11'2 5.8
2017-Jun-27 08:58N 51°22' E 004°07'2 5.1
2017-Jun-27 08:30N 51°24' E 004°05'3 6.0
2017-Jun-27 08:00N 51°26' E 004°01'1 2.4
2017-Jun-27 07:29N 51°27' E 004°01'0 0.0
2017-Jun-27 06:59N 51°27' E 004°01'0 0.0
2017-Jun-27 06:26N 51°27' E 004°01'0 0.0
2017-Jun-27 06:00N 51°27' E 004°01'0 0.0
2017-Jun-27 05:28N 51°27' E 004°01'0 0.0
2017-Jun-27 04:56N 51°27' E 004°01'0 0.0
2017-Jun-27 04:27N 51°27' E 004°01'0 0.0
2017-Jun-27 03:56N 51°27' E 004°01'0 0.0
2017-Jun-27 03:29N 51°27' E 004°01'0 0.0
2017-Jun-27 03:00N 51°27' E 004°01'0 0.0
2017-Jun-27 02:29N 51°27' E 004°01'0 0.0
2017-Jun-27 02:00N 51°27' E 004°01'0 0.0
2017-Jun-27 01:28N 51°27' E 004°01'0 0.0
2017-Jun-27 01:00N 51°27' E 004°01'0 0.0
2017-Jun-27 00:30N 51°27' E 004°01'0 0.0
2017-Jun-26 23:58N 51°27' E 004°01'0 0.0
2017-Jun-26 23:27N 51°27' E 004°01'0 0.0
2017-Jun-26 23:00N 51°27' E 004°01'0 0.0
2017-Jun-26 22:30N 51°27' E 004°01'0 0.0
2017-Jun-26 21:57N 51°27' E 004°01'0 0.0
2017-Jun-26 21:28N 51°27' E 004°01'0 0.0
2017-Jun-26 20:57N 51°27' E 004°01'0 0.0
2017-Jun-26 20:19N 51°27' E 004°01'0 0.0
2017-Jun-26 19:58N 51°27' E 004°01'0 0.0
2017-Jun-26 19:30N 51°27' E 004°01'0 0.0
2017-Jun-26 19:00N 51°27' E 004°01'0 0.0
2017-Jun-26 18:30N 51°27' E 004°01'0 0.0
2017-Jun-26 17:58N 51°27' E 004°01'0 0.0
2017-Jun-26 17:30N 51°27' E 004°01'0 0.0
2017-Jun-26 16:59N 51°27' E 004°01'0 0.0
2017-Jun-26 16:30N 51°27' E 004°01'1 1.9
2017-Jun-26 16:00N 51°26' E 004°01'3 5.6
2017-Jun-26 15:30N 51°24' E 003°58'5 9.6
2017-Jun-26 15:00N 51°21' E 003°52'3 5.6
2017-Jun-26 14:30N 51°21' E 003°47'9 5.5
2017-Jun-26 12:53N 51°26' E 003°35'1 1.8
2017-Jun-26 12:29N 51°27' E 003°36'0 0.3
2017-Jun-26 12:00N 51°27' E 003°36'0 0.0
2017-Jun-26 11:27N 51°27' E 003°36'0 0.0
2017-Jun-26 10:56N 51°27' E 003°36'0 0.0
2017-Jun-26 10:29N 51°27' E 003°36'0 0.0
2017-Jun-26 10:00N 51°27' E 003°36'0 0.0
2017-Jun-26 09:30N 51°27' E 003°36'0 0.0
2017-Jun-26 08:59N 51°27' E 003°36'0 0.0
2017-Jun-26 08:23N 51°27' E 003°36'0 0.0
2017-Jun-26 08:00N 51°27' E 003°36'0 0.0
2017-Jun-26 07:22N 51°27' E 003°36'0 0.0
2017-Jun-26 06:57N 51°27' E 003°36'0 0.0
2017-Jun-26 06:30N 51°27' E 003°36'0 0.0
2017-Jun-26 06:00N 51°27' E 003°36'0 0.0
2017-Jun-26 05:29N 51°27' E 003°36'0 0.0
2017-Jun-26 04:56N 51°27' E 003°36'0 0.0
2017-Jun-26 04:28N 51°27' E 003°36'0 0.0
2017-Jun-26 03:50N 51°27' E 003°36'0 0.0
2017-Jun-26 03:22N 51°27' E 003°36'0 0.0
2017-Jun-26 02:20N 51°27' E 003°36'0 0.0
2017-Jun-26 01:59N 51°27' E 003°36'0 0.0
2017-Jun-26 01:29N 51°27' E 003°36'0 0.0
2017-Jun-26 00:57N 51°27' E 003°36'0 0.0
2017-Jun-26 00:29N 51°27' E 003°36'0 0.0
2017-Jun-26 00:00N 51°27' E 003°36'0 0.0
2017-Jun-25 23:28N 51°27' E 003°36'0 0.0
2017-Jun-25 23:00N 51°27' E 003°36'0 0.0
2017-Jun-25 22:30N 51°27' E 003°36'0 0.0
2017-Jun-25 22:00N 51°27' E 003°36'0 0.0
2017-Jun-25 21:29N 51°27' E 003°36'0 0.0
2017-Jun-25 21:00N 51°27' E 003°36'0 0.0
2017-Jun-25 20:30N 51°27' E 003°36'0 0.0
2017-Jun-25 20:00N 51°27' E 003°36'0 0.0
2017-Jun-25 19:30N 51°27' E 003°36'0 0.0
2017-Jun-25 19:00N 51°27' E 003°36'0 0.0
2017-Jun-25 18:28N 51°27' E 003°36'0 0.0
2017-Jun-25 17:59N 51°27' E 003°36'0 0.0
2017-Jun-25 17:29N 51°27' E 003°36'0 0.0
2017-Jun-25 16:40N 51°27' E 003°36'0 0.0
2017-Jun-24 09:33N 51°27' E 003°36'0 0.0
2017-Jun-24 09:29N 51°27' E 003°36'0 0.0
2017-Jun-23 22:33N 51°27' E 003°36'0 0.0
2017-Jun-23 22:29N 51°27' E 003°36'0 0.0
2017-Jun-23 22:00N 51°27' E 003°36'0 0.0
2017-Jun-23 13:03N 51°27' E 003°36'0 0.0
2017-Jun-23 12:57N 51°27' E 003°36'0 0.0
2017-Jun-23 12:03N 51°27' E 003°36'0 0.0
2017-Jun-23 11:55N 51°27' E 003°36'0 0.0
2017-Jun-23 10:30N 51°27' E 003°36'0 0.0
2017-Jun-23 09:59N 51°27' E 003°36'0 0.0
2017-Jun-23 09:27N 51°27' E 003°36'0 0.0
2017-Jun-23 09:00N 51°27' E 003°36'0 0.0
2017-Jun-23 08:24N 51°27' E 003°36'0 0.0
2017-Jun-23 07:59N 51°27' E 003°36'0 0.0
2017-Jun-23 07:28N 51°27' E 003°36'0 0.0
2017-Jun-23 07:00N 51°27' E 003°36'0 0.0
2017-Jun-23 06:30N 51°27' E 003°36'0 0.0
2017-Jun-23 06:00N 51°27' E 003°36'0 0.0
2017-Jun-23 05:29N 51°27' E 003°36'0 0.0
2017-Jun-23 05:00N 51°27' E 003°36'0 0.0
2017-Jun-23 04:30N 51°27' E 003°36'0 0.0
2017-Jun-23 04:00N 51°27' E 003°36'0 0.0
2017-Jun-23 03:29N 51°27' E 003°36'0 0.0
2017-Jun-23 02:58N 51°27' E 003°36'0 0.0
2017-Jun-23 02:28N 51°27' E 003°36'0 0.0
2017-Jun-23 01:58N 51°27' E 003°36'0 0.0
2017-Jun-23 01:28N 51°27' E 003°36'0 0.0
2017-Jun-23 01:00N 51°27' E 003°36'0 0.0
2017-Jun-23 00:29N 51°27' E 003°36'0 0.0
2017-Jun-22 23:55N 51°27' E 003°36'0 0.0
2017-Jun-22 23:21N 51°27' E 003°36'0 0.0
2017-Jun-22 22:50N 51°27' E 003°36'0 0.0
2017-Jun-22 22:27N 51°27' E 003°36'0 0.0
2017-Jun-22 20:23N 51°27' E 003°36'0 0.0
2017-Jun-22 19:20N 51°27' E 003°36'0 0.0
2017-Jun-22 18:55N 51°27' E 003°36'0 0.0
2017-Jun-22 18:22N 51°27' E 003°36'0 0.0
2017-Jun-22 18:00N 51°27' E 003°36'0 0.0
2017-Jun-22 17:29N 51°27' E 003°36'0 0.0
2017-Jun-22 16:59N 51°27' E 003°36'0 0.0
2017-Jun-22 16:26N 51°27' E 003°36'0 0.0
2017-Jun-22 15:59N 51°27' E 003°36'0 0.0
2017-Jun-22 15:29N 51°27' E 003°36'0 0.0
2017-Jun-22 14:53N 51°27' E 003°36'0 0.0
2017-Jun-22 14:27N 51°27' E 003°36'0 0.0
2017-Jun-22 13:24N 51°27' E 003°36'0 0.0
2017-Jun-22 12:37N 51°27' E 003°36'0 0.0
2017-Jun-22 12:21N 51°27' E 003°36'0 0.0
2017-Jun-22 11:56N 51°27' E 003°36'1 1.1
2017-Jun-22 11:26N 51°27' E 003°35'2 4.0
2017-Jun-22 10:52N 51°29' E 003°36'1 1.7
2017-Jun-22 10:29N 51°30' E 003°37'1 1.8
2017-Jun-22 09:53N 51°30' E 003°39'2 5.9
2017-Jun-22 09:30N 51°32' E 003°40'0 0.3
2017-Jun-22 09:00N 51°33' E 003°40'2 3.1
2017-Jun-22 08:30N 51°31' E 003°42'2 3.0
2017-Jun-22 07:53N 51°32' E 003°44'3 5.0
2017-Jun-22 07:22N 51°33' E 003°48'2 5.2
2017-Jun-22 06:56N 51°33' E 003°52'0 0.0
2017-Jun-22 06:28N 51°33' E 003°52'0 0.0
2017-Jun-22 05:39N 51°33' E 003°52'0 0.0
2017-Jun-22 05:21N 51°33' E 003°52'0 0.0
2017-Jun-22 05:00N 51°33' E 003°52'0 0.0
2017-Jun-22 03:59N 51°33' E 003°52'0 0.0
2017-Jun-22 03:30N 51°33' E 003°52'0 0.0
2017-Jun-22 03:00N 51°33' E 003°52'0 0.0
2017-Jun-22 02:30N 51°33' E 003°52'0 0.0
2017-Jun-22 01:59N 51°33' E 003°52'0 0.0
2017-Jun-22 01:30N 51°33' E 003°52'0 0.0
2017-Jun-22 00:57N 51°33' E 003°52'0 0.0
2017-Jun-22 00:09N 51°33' E 003°52'0 0.0
2017-Jun-22 00:00N 51°33' E 003°52'0 0.0
2017-Jun-21 23:29N 51°33' E 003°52'0 0.0
2017-Jun-21 23:00N 51°33' E 003°52'0 0.0
2017-Jun-21 22:28N 51°33' E 003°52'0 0.0
2017-Jun-21 21:57N 51°33' E 003°52'0 0.0
2017-Jun-21 21:30N 51°33' E 003°52'0 0.0
2017-Jun-21 20:58N 51°33' E 003°52'0 0.0
2017-Jun-21 20:28N 51°33' E 003°52'0 0.0
2017-Jun-21 20:00N 51°33' E 003°52'0 0.0
2017-Jun-21 19:24N 51°33' E 003°52'0 0.0
2017-Jun-21 18:59N 51°33' E 003°52'0 0.0
2017-Jun-21 18:30N 51°33' E 003°52'0 0.0
2017-Jun-21 17:52N 51°33' E 003°52'0 0.0
2017-Jun-21 17:30N 51°33' E 003°52'0 0.0
2017-Jun-21 16:57N 51°33' E 003°52'0 0.0
2017-Jun-21 16:30N 51°33' E 003°52'0 0.0
2017-Jun-21 16:00N 51°33' E 003°52'0 0.0
2017-Jun-21 15:30N 51°33' E 003°52'0 0.0
2017-Jun-21 14:59N 51°33' E 003°52'0 0.0
2017-Jun-21 14:28N 51°33' E 003°52'1 1.2
2017-Jun-21 13:28N 51°33' E 003°53'3 5.4
2017-Jun-21 12:53N 51°36' E 003°53'0 0.1
2017-Jun-21 11:02N 51°36' E 003°53'1 6.8
2017-Jun-21 10:52N 51°35' E 003°54'3 6.5
2017-Jun-21 10:25N 51°33' E 003°57'5 6.7
2017-Jun-21 09:39N 51°31' E 004°05'2 6.5
2017-Jun-21 09:18N 51°30' E 004°08'1 3.2
2017-Jun-21 08:56N 51°31' E 004°07'4 8.6
2017-Jun-21 08:27N 51°32' E 004°00'4 5.7
2017-Jun-21 07:45N 51°36' E 004°00'517.6
2017-Jun-21 07:27N 51°40' E 004°07'0 0.0
2017-Jun-21 07:00N 51°40' E 004°07'5 0.3
2017-Jun-20 15:05N 51°44' E 004°02'0 0.0
2017-Jun-20 15:00N 51°44' E 004°02'2 1.7
2017-Jun-20 14:00N 51°46' E 004°01'3 7.0
2017-Jun-20 13:30N 51°48' E 003°56'2 0.4
2017-Jun-20 08:22N 51°46' E 003°58'0 0.0
2017-Jun-20 08:00N 51°46' E 003°58'8 2.9
2017-Jun-20 05:23N 51°41' E 004°07'11 0.9
2017-Jun-19 17:09N 51°31' E 004°13'2 7.5
2017-Jun-19 16:53N 51°29' E 004°13'2 4.0
2017-Jun-19 16:17N 51°27' E 004°14'2 2.5
2017-Jun-19 15:29N 51°25' E 004°14'4 6.7
2017-Jun-19 14:56N 51°22' E 004°18'2 1.9
2017-Jun-19 13:40N 51°23' E 004°15'4 2.6
2017-Jun-19 12:18N 51°27' E 004°13'14 3.8
2017-Jun-19 08:40N 51°40' E 004°21'0 0.2
2017-Jun-19 08:09N 51°40' E 004°21'0 0.0
2017-Jun-19 08:00N 51°40' E 004°21'2 2.8
2017-Jun-19 07:10N 51°39' E 004°17'1 5.0
2017-Jun-19 06:57N 51°38' E 004°15'2 3.1
2017-Jun-19 06:28N 51°39' E 004°13'2 3.7
2017-Jun-19 06:00N 51°40' E 004°11'1 1.5
2017-Jun-19 05:30N 51°40' E 004°10'1 1.2
2017-Jun-19 05:00N 51°40' E 004°10'0 0.3
2017-Jun-19 04:29N 51°40' E 004°10'0 0.0
2017-Jun-19 03:54N 51°40' E 004°10'0 0.0
2017-Jun-19 03:21N 51°40' E 004°10'0 0.0
2017-Jun-19 03:00N 51°40' E 004°10'0 0.0
2017-Jun-19 02:30N 51°40' E 004°10'0 0.0
2017-Jun-19 02:00N 51°40' E 004°10'0 0.0
2017-Jun-19 01:30N 51°40' E 004°10'0 0.0
2017-Jun-19 01:00N 51°40' E 004°10'0 0.0
2017-Jun-19 00:30N 51°40' E 004°10'0 0.0
2017-Jun-19 00:00N 51°40' E 004°10'0 0.0
2017-Jun-18 23:30N 51°40' E 004°10'0 0.0
2017-Jun-18 23:00N 51°40' E 004°10'  

Dump ship's entire track history